createdAt,value
2018-10-21T00:01:26.844Z,65.70
2018-10-21T00:03:28.837Z,65.60
2018-10-21T00:05:31.139Z,65.60
2018-10-21T00:07:33.141Z,65.50
2018-10-21T00:09:35.185Z,65.50
2018-10-21T00:11:37.161Z,65.60
2018-10-21T00:13:39.186Z,65.50
2018-10-21T00:15:41.797Z,65.40
2018-10-21T00:17:43.603Z,65.50
2018-10-21T00:19:45.633Z,65.60
2018-10-21T00:21:47.666Z,65.40
2018-10-21T00:23:49.678Z,65.50
2018-10-21T00:25:51.676Z,65.40
2018-10-21T00:27:53.693Z,65.40
2018-10-21T00:29:55.691Z,65.40
2018-10-21T00:31:57.687Z,65.40
2018-10-21T00:33:59.675Z,65.40
2018-10-21T00:36:01.698Z,65.40
2018-10-21T00:38:03.706Z,65.40
2018-10-21T00:40:05.732Z,65.50
2018-10-21T00:42:07.731Z,65.40
2018-10-21T00:44:09.718Z,65.50
2018-10-21T00:46:11.749Z,65.50
2018-10-21T00:48:13.769Z,65.40
2018-10-21T00:50:15.767Z,65.50
2018-10-21T00:52:17.801Z,65.40
2018-10-21T00:54:19.827Z,65.50
2018-10-21T00:56:21.820Z,65.50
2018-10-21T00:58:23.836Z,65.50
2018-10-21T01:00:25.845Z,65.40
2018-10-21T01:02:27.866Z,65.50
2018-10-21T01:04:29.911Z,65.40
2018-10-21T01:06:32.261Z,65.40
2018-10-21T01:08:34.314Z,65.40
2018-10-21T01:10:36.349Z,65.50
2018-10-21T01:12:38.329Z,65.60
2018-10-21T01:14:40.351Z,65.60
2018-10-21T01:16:42.360Z,65.60
2018-10-21T01:18:44.842Z,65.40
2018-10-21T01:20:46.829Z,65.40
2018-10-21T01:22:48.826Z,65.40
2018-10-21T01:24:50.861Z,65.50
2018-10-21T01:26:52.836Z,65.50
2018-10-21T01:28:54.833Z,65.60
2018-10-21T01:30:56.841Z,65.50
2018-10-21T01:32:58.844Z,65.60
2018-10-21T01:35:00.850Z,65.60
2018-10-21T01:37:02.975Z,65.60
2018-10-21T01:39:04.995Z,65.60
2018-10-21T01:41:06.963Z,65.60
2018-10-21T01:43:08.950Z,65.60
2018-10-21T01:45:10.978Z,65.60
2018-10-21T01:47:13.006Z,65.60
2018-10-21T01:49:15.017Z,65.60
2018-10-21T01:51:17.151Z,65.60
2018-10-21T01:53:19.118Z,65.60
2018-10-21T01:55:21.126Z,65.60
2018-10-21T01:57:23.177Z,65.60
2018-10-21T01:59:25.273Z,65.60
2018-10-21T02:01:27.287Z,65.70
2018-10-21T02:03:29.291Z,65.60
2018-10-21T02:05:31.275Z,65.60
2018-10-21T02:07:33.288Z,65.30
2018-10-21T02:09:35.314Z,65.60
2018-10-21T02:11:37.291Z,65.60
2018-10-21T02:13:39.331Z,65.60
2018-10-21T02:15:41.316Z,65.60
2018-10-21T02:17:43.301Z,65.60
2018-10-21T02:19:45.303Z,65.60
2018-10-21T02:21:47.289Z,65.60
2018-10-21T02:23:49.336Z,65.60
2018-10-21T02:25:51.320Z,65.70
2018-10-21T02:27:53.355Z,65.70
2018-10-21T02:29:55.344Z,65.70
2018-10-21T02:31:57.367Z,65.70
2018-10-21T02:33:59.366Z,65.60
2018-10-21T02:36:01.387Z,65.60
2018-10-21T02:38:03.370Z,65.60
2018-10-21T02:40:05.378Z,65.70
2018-10-21T02:42:07.404Z,65.60
2018-10-21T02:44:09.460Z,65.60
2018-10-21T02:46:11.451Z,65.60
2018-10-21T02:48:13.462Z,65.70
2018-10-21T02:50:15.478Z,65.80
2018-10-21T02:52:17.488Z,65.80
2018-10-21T02:54:19.463Z,65.70
2018-10-21T02:56:21.461Z,65.70
2018-10-21T02:58:23.454Z,65.80
2018-10-21T03:00:25.463Z,65.70
2018-10-21T03:02:27.450Z,65.80
2018-10-21T03:04:29.471Z,65.70
2018-10-21T03:06:31.462Z,65.70
2018-10-21T03:08:33.656Z,65.70
2018-10-21T03:10:35.661Z,65.70
2018-10-21T03:12:37.700Z,65.60
2018-10-21T03:14:39.741Z,65.60
2018-10-21T03:16:41.722Z,65.70
2018-10-21T03:18:43.736Z,65.60
2018-10-21T03:20:45.740Z,65.70
2018-10-21T03:22:47.815Z,65.70
2018-10-21T03:24:50.094Z,65.70
2018-10-21T03:26:52.117Z,65.80
2018-10-21T03:28:54.101Z,65.80
2018-10-21T03:30:56.102Z,65.80
2018-10-21T03:32:58.236Z,65.80
2018-10-21T03:35:00.525Z,65.70
2018-10-21T03:37:02.610Z,65.80
2018-10-21T03:39:04.617Z,65.80
2018-10-21T03:41:06.584Z,65.80
2018-10-21T03:43:08.598Z,65.70
2018-10-21T03:45:10.612Z,65.80
2018-10-21T03:47:12.611Z,65.80
2018-10-21T03:49:14.622Z,65.80
2018-10-21T03:51:16.695Z,65.80
2018-10-21T03:53:18.690Z,65.70
2018-10-21T03:55:20.713Z,65.70
2018-10-21T03:57:22.690Z,65.70
2018-10-21T03:59:24.691Z,65.80
2018-10-21T04:01:26.750Z,65.70
2018-10-21T04:03:28.781Z,65.60
2018-10-21T04:05:30.755Z,66.40
2018-10-21T04:07:32.762Z,65.60
2018-10-21T04:09:34.775Z,65.60
2018-10-21T04:11:36.790Z,65.60
2018-10-21T04:13:38.785Z,65.60
2018-10-21T04:15:40.809Z,65.60
2018-10-21T04:17:42.836Z,65.60
2018-10-21T04:19:44.810Z,65.60
2018-10-21T04:21:46.786Z,65.60
2018-10-21T04:23:48.816Z,65.50
2018-10-21T04:25:50.792Z,65.60
2018-10-21T04:27:52.857Z,65.40
2018-10-21T04:29:54.871Z,65.40
2018-10-21T04:31:56.850Z,65.30
2018-10-21T04:33:58.948Z,65.10
2018-10-21T04:36:00.933Z,65.10
2018-10-21T04:38:02.909Z,65.00
2018-10-21T04:40:04.962Z,65.00
2018-10-21T04:42:06.962Z,65.00
2018-10-21T04:44:08.942Z,64.90
2018-10-21T04:46:10.998Z,64.90
2018-10-21T04:48:13.348Z,64.80
2018-10-21T04:50:15.349Z,64.90
2018-10-21T04:52:17.358Z,64.90
2018-10-21T04:54:19.353Z,64.80
2018-10-21T04:56:21.420Z,64.80
2018-10-21T04:58:23.398Z,64.80
2018-10-21T05:00:25.381Z,64.80
2018-10-21T05:02:27.409Z,64.80
2018-10-21T05:04:29.406Z,64.70
2018-10-21T05:06:31.375Z,64.80
2018-10-21T05:08:33.396Z,65.60
2018-10-21T05:10:35.427Z,64.60
2018-10-21T05:12:37.428Z,64.60
2018-10-21T05:14:39.414Z,64.60
2018-10-21T05:16:41.488Z,64.60
2018-10-21T05:18:43.659Z,64.10
2018-10-21T05:20:45.684Z,64.50
2018-10-21T05:22:47.665Z,64.50
2018-10-21T05:24:49.679Z,64.50
2018-10-21T05:26:51.693Z,64.50
2018-10-21T05:28:53.685Z,64.50
2018-10-21T05:30:55.724Z,64.40
2018-10-21T05:32:57.709Z,64.40
2018-10-21T05:34:59.681Z,64.40
2018-10-21T05:37:01.703Z,64.30
2018-10-21T05:39:03.709Z,64.30
2018-10-21T05:41:05.733Z,64.30
2018-10-21T05:43:07.726Z,64.30
2018-10-21T05:45:09.727Z,64.20
2018-10-21T05:47:11.781Z,64.30
2018-10-21T05:49:13.746Z,64.10
2018-10-21T05:51:15.727Z,65.20
2018-10-21T05:53:17.740Z,64.20
2018-10-21T05:55:19.727Z,64.10
2018-10-21T05:57:21.729Z,64.10
2018-10-21T05:59:23.747Z,64.10
2018-10-21T06:01:25.777Z,64.60
2018-10-21T06:03:27.761Z,64.10
2018-10-21T06:05:29.805Z,64.10
2018-10-21T06:07:31.799Z,64.00
2018-10-21T06:09:33.793Z,64.00
2018-10-21T06:11:35.784Z,63.90
2018-10-21T06:13:37.808Z,64.00
2018-10-21T06:15:39.894Z,63.90
2018-10-21T06:17:42.214Z,63.70
2018-10-21T06:19:44.224Z,63.80
2018-10-21T06:21:46.249Z,63.70
2018-10-21T06:23:48.368Z,63.60
2018-10-21T06:25:50.273Z,63.70
2018-10-21T06:27:52.307Z,63.50
2018-10-21T06:29:54.294Z,64.00
2018-10-21T06:31:56.278Z,63.60
2018-10-21T06:33:58.281Z,63.60
2018-10-21T06:36:00.261Z,63.60
2018-10-21T06:38:02.284Z,63.60
2018-10-21T06:40:04.276Z,63.60
2018-10-21T06:42:06.282Z,64.10
2018-10-21T06:44:08.303Z,63.60
2018-10-21T06:46:10.287Z,63.60
2018-10-21T06:48:12.301Z,63.60
2018-10-21T06:50:14.313Z,63.70
2018-10-21T06:52:16.329Z,63.80
2018-10-21T06:54:18.362Z,63.90
2018-10-21T06:56:20.758Z,63.90
2018-10-21T06:58:22.911Z,64.60
2018-10-21T07:00:25.316Z,63.70
2018-10-21T07:02:27.325Z,63.60
2018-10-21T07:04:29.331Z,63.80
2018-10-21T07:06:31.390Z,63.80
2018-10-21T07:08:33.407Z,63.90
2018-10-21T07:10:35.433Z,64.00
2018-10-21T07:12:37.414Z,64.00
2018-10-21T07:14:39.445Z,64.00
2018-10-21T07:16:41.618Z,64.10
2018-10-21T07:18:43.837Z,64.10
2018-10-21T07:20:45.859Z,64.10
2018-10-21T07:22:47.883Z,64.30
2018-10-21T07:24:49.875Z,64.10
2018-10-21T07:26:51.891Z,64.10
2018-10-21T07:28:53.888Z,65.10
2018-10-21T07:30:55.893Z,64.30
2018-10-21T07:32:57.934Z,64.30
2018-10-21T07:34:59.923Z,64.30
2018-10-21T07:37:01.943Z,64.30
2018-10-21T07:39:03.963Z,64.30
2018-10-21T07:41:05.994Z,64.30
2018-10-21T07:43:08.253Z,64.40
2018-10-21T07:45:10.262Z,64.40
2018-10-21T07:47:12.269Z,64.40
2018-10-21T07:49:14.325Z,64.50
2018-10-21T07:51:16.245Z,64.40
2018-10-21T07:53:18.279Z,64.40
2018-10-21T07:55:20.299Z,64.60
2018-10-21T07:57:22.297Z,64.50
2018-10-21T07:59:24.273Z,64.50
2018-10-21T08:01:26.314Z,64.60
2018-10-21T08:03:28.277Z,64.50
2018-10-21T08:05:30.284Z,64.60
2018-10-21T08:07:32.331Z,64.60
2018-10-21T08:09:34.319Z,64.60
2018-10-21T08:11:36.351Z,64.70
2018-10-21T08:13:38.344Z,64.70
2018-10-21T08:15:40.309Z,64.70
2018-10-21T08:17:42.333Z,64.80
2018-10-21T08:19:44.356Z,64.80
2018-10-21T08:21:46.409Z,64.80
2018-10-21T08:23:48.426Z,64.80
2018-10-21T08:25:50.449Z,64.80
2018-10-21T08:27:52.445Z,64.60
2018-10-21T08:29:54.440Z,64.80
2018-10-21T08:31:56.462Z,64.70
2018-10-21T08:33:58.505Z,64.80
2018-10-21T08:36:00.538Z,64.80
2018-10-21T08:38:02.685Z,64.90
2018-10-21T08:40:04.706Z,65.80
2018-10-21T08:42:06.696Z,65.00
2018-10-21T08:44:08.721Z,65.10
2018-10-21T08:46:10.744Z,65.30
2018-10-21T08:48:12.799Z,65.10
2018-10-21T08:50:14.783Z,65.10
2018-10-21T08:52:16.865Z,65.20
2018-10-21T08:54:18.878Z,65.00
2018-10-21T08:56:21.233Z,65.00
2018-10-21T08:58:23.261Z,65.10
2018-10-21T09:00:25.318Z,65.30
2018-10-21T09:02:27.311Z,65.90
2018-10-21T09:04:29.318Z,65.60
2018-10-21T09:06:31.333Z,65.80
2018-10-21T09:08:33.292Z,65.80
2018-10-21T09:10:35.398Z,65.90
2018-10-21T09:12:37.464Z,65.90
2018-10-21T09:14:39.420Z,66.90
2018-10-21T09:16:41.445Z,66.50
2018-10-21T09:18:43.612Z,65.00
2018-10-21T09:20:45.574Z,63.30
2018-10-21T09:22:47.528Z,66.10
2018-10-21T09:24:49.554Z,67.70
2018-10-21T09:26:51.502Z,69.00
2018-10-21T09:28:53.539Z,70.20
2018-10-21T09:30:55.544Z,69.70
2018-10-21T09:32:57.550Z,69.20
2018-10-21T09:34:59.532Z,69.40
2018-10-21T09:37:01.630Z,69.50
2018-10-21T09:39:03.570Z,69.30
2018-10-21T09:41:05.578Z,69.70
2018-10-21T09:43:07.636Z,69.60
2018-10-21T09:45:09.629Z,69.90
2018-10-21T09:47:11.666Z,70.90
2018-10-21T09:49:13.728Z,70.20
2018-10-21T09:51:15.697Z,70.90
2018-10-21T09:53:17.686Z,69.70
2018-10-21T09:55:19.669Z,69.70
2018-10-21T09:57:21.723Z,69.40
2018-10-21T09:59:23.791Z,69.20
2018-10-21T10:01:25.775Z,69.40
2018-10-21T10:03:27.803Z,69.50
2018-10-21T10:05:29.798Z,70.40
2018-10-21T10:07:32.979Z,69.00
2018-10-21T10:09:34.972Z,68.10
2018-10-21T10:11:37.682Z,67.40
2018-10-21T10:13:39.665Z,66.90
2018-10-21T10:15:41.699Z,66.60
2018-10-21T10:17:43.751Z,66.30
2018-10-21T10:19:45.700Z,66.10
2018-10-21T10:21:47.718Z,66.10
2018-10-21T10:23:49.784Z,66.10
2018-10-21T10:25:52.015Z,65.70
2018-10-21T10:27:54.024Z,65.50
2018-10-21T10:29:55.989Z,65.10
2018-10-21T10:31:58.042Z,65.60
2018-10-21T10:34:00.121Z,65.30
2018-10-21T10:36:02.112Z,65.30
2018-10-21T10:38:04.086Z,65.40
2018-10-21T10:40:06.135Z,65.50
2018-10-21T10:42:08.230Z,65.40
2018-10-21T10:44:10.413Z,65.40
2018-10-21T10:46:12.511Z,65.30
2018-10-21T10:48:14.465Z,65.40
2018-10-21T10:50:16.461Z,65.30
2018-10-21T10:52:18.431Z,65.50
2018-10-21T10:54:20.575Z,65.30
2018-10-21T10:56:22.565Z,65.40
2018-10-21T10:58:24.638Z,65.30
2018-10-21T11:00:26.657Z,65.40
2018-10-21T11:02:28.659Z,65.40
2018-10-21T11:04:30.871Z,65.30
2018-10-21T11:06:32.867Z,66.30
2018-10-21T11:08:34.866Z,65.40
2018-10-21T11:10:36.854Z,65.10
2018-10-21T11:12:38.895Z,65.20
2018-10-21T11:14:40.943Z,65.30
2018-10-21T11:16:43.159Z,65.30
2018-10-21T11:18:45.193Z,65.20
2018-10-21T11:20:47.187Z,65.10
2018-10-21T11:22:49.213Z,65.00
2018-10-21T11:24:51.201Z,65.10
2018-10-21T11:26:53.216Z,65.10
2018-10-21T11:28:55.244Z,65.10
2018-10-21T11:30:57.300Z,65.00
2018-10-21T11:32:59.670Z,65.00
2018-10-21T11:35:01.691Z,65.00
2018-10-21T11:37:03.743Z,64.90
2018-10-21T11:39:05.710Z,64.90
2018-10-21T11:41:07.702Z,65.00
2018-10-21T11:43:09.730Z,65.00
2018-10-21T11:45:11.695Z,65.00
2018-10-21T11:47:13.712Z,65.00
2018-10-21T11:49:15.841Z,65.00
2018-10-21T11:51:17.736Z,65.00
2018-10-21T11:53:19.724Z,65.40
2018-10-21T11:55:21.794Z,65.00
2018-10-21T11:57:23.860Z,64.90
2018-10-21T11:59:25.848Z,65.00
2018-10-21T12:01:27.863Z,65.00
2018-10-21T12:03:29.890Z,65.00
2018-10-21T12:05:31.918Z,65.00
2018-10-21T12:07:33.948Z,64.90
2018-10-21T12:09:35.992Z,63.60
2018-10-21T12:11:38.116Z,63.50
2018-10-21T12:13:40.093Z,64.50
2018-10-21T12:15:42.077Z,64.60
2018-10-21T12:17:44.074Z,64.60
2018-10-21T12:19:46.153Z,60.20
2018-10-21T12:21:48.090Z,63.20
2018-10-21T12:23:50.103Z,64.60
2018-10-21T12:25:52.134Z,63.90
2018-10-21T12:27:54.138Z,64.60
2018-10-21T12:29:56.102Z,65.10
2018-10-21T12:31:58.106Z,65.00
2018-10-21T12:34:00.155Z,64.40
2018-10-21T12:36:02.201Z,65.40
2018-10-21T12:38:04.180Z,66.40
2018-10-21T12:40:06.206Z,66.90
2018-10-21T12:42:08.181Z,67.50
2018-10-21T12:44:10.239Z,67.80
2018-10-21T12:46:12.284Z,66.40
2018-10-21T12:48:14.626Z,66.10
2018-10-21T12:50:16.642Z,67.10
2018-10-21T12:52:18.636Z,65.90
2018-10-21T12:54:20.619Z,65.30
2018-10-21T12:56:22.637Z,65.00
2018-10-21T12:58:24.691Z,64.10
2018-10-21T13:00:27.428Z,63.40
2018-10-21T13:02:29.464Z,62.60
2018-10-21T13:04:31.455Z,61.50
2018-10-21T13:06:33.472Z,62.20
2018-10-21T13:08:35.510Z,61.50
2018-10-21T13:10:37.521Z,61.60
2018-10-21T13:12:39.576Z,61.70
2018-10-21T13:14:41.550Z,62.70
2018-10-21T13:16:43.520Z,61.30
2018-10-21T13:18:45.546Z,60.30
2018-10-21T13:20:47.534Z,59.90
2018-10-21T13:22:49.520Z,60.50
2018-10-21T13:24:51.526Z,63.80
2018-10-21T13:26:53.561Z,63.40
2018-10-21T13:28:55.591Z,63.00
2018-10-21T13:30:57.578Z,62.30
2018-10-21T13:32:59.963Z,62.10
2018-10-21T13:35:01.978Z,61.80
2018-10-21T13:37:04.069Z,61.50
2018-10-21T13:39:06.054Z,61.20
2018-10-21T13:41:08.097Z,61.00
2018-10-21T13:43:10.410Z,61.10
2018-10-21T13:45:12.382Z,61.20
2018-10-21T13:47:14.409Z,61.20
2018-10-21T13:49:16.477Z,61.20
2018-10-21T13:51:18.709Z,61.00
2018-10-21T13:53:20.742Z,60.70
2018-10-21T13:55:22.705Z,60.70
2018-10-21T13:57:24.738Z,61.20
2018-10-21T13:59:26.754Z,60.70
2018-10-21T14:01:28.835Z,60.60
2018-10-21T14:03:30.805Z,60.60
2018-10-21T14:05:32.822Z,60.50
2018-10-21T14:07:34.839Z,60.30
2018-10-21T14:09:36.831Z,60.20
2018-10-21T14:11:38.856Z,60.20
2018-10-21T14:13:40.852Z,60.00
2018-10-21T14:15:42.875Z,60.00
2018-10-21T14:17:44.872Z,59.70
2018-10-21T14:19:46.901Z,59.90
2018-10-21T14:21:48.892Z,60.00
2018-10-21T14:23:50.884Z,60.60
2018-10-21T14:25:53.285Z,61.00
2018-10-21T14:27:55.279Z,61.90
2018-10-21T14:29:57.297Z,62.30
2018-10-21T14:31:59.774Z,62.80
2018-10-21T14:34:01.786Z,63.00
2018-10-21T14:36:03.816Z,63.30
2018-10-21T14:38:05.855Z,63.40
2018-10-21T14:40:07.817Z,63.50
2018-10-21T14:42:09.881Z,63.50
2018-10-21T14:44:11.927Z,63.70
2018-10-21T14:46:14.048Z,63.90
2018-10-21T14:48:16.036Z,63.90
2018-10-21T14:50:18.276Z,64.50
2018-10-21T14:52:20.310Z,64.30
2018-10-21T14:54:22.327Z,64.20
2018-10-21T14:56:24.368Z,64.20
2018-10-21T14:58:26.397Z,62.80
2018-10-21T15:00:28.526Z,64.00
2018-10-21T15:02:30.419Z,65.30
2018-10-21T15:04:32.476Z,65.40
2018-10-21T15:06:34.501Z,65.30
2018-10-21T15:08:36.506Z,65.30
2018-10-21T15:10:38.506Z,65.40
2018-10-21T15:12:40.520Z,65.40
2018-10-21T15:14:42.525Z,65.40
2018-10-21T15:16:44.553Z,65.40
2018-10-21T15:18:46.516Z,65.40
2018-10-21T15:20:48.612Z,65.50
2018-10-21T15:22:50.701Z,65.90
2018-10-21T15:24:52.643Z,66.20
2018-10-21T15:26:54.673Z,66.10
2018-10-21T15:28:56.685Z,66.80
2018-10-21T15:30:58.681Z,68.00
2018-10-21T15:33:00.671Z,69.00
2018-10-21T15:35:02.723Z,68.50
2018-10-21T15:37:04.714Z,68.60
2018-10-21T15:39:06.715Z,69.20
2018-10-21T15:41:08.772Z,69.50
2018-10-21T15:43:10.763Z,69.70
2018-10-21T15:45:12.795Z,69.80
2018-10-21T15:47:14.825Z,69.60
2018-10-21T15:49:16.804Z,69.70
2018-10-21T15:51:18.802Z,69.70
2018-10-21T15:53:20.813Z,69.70
2018-10-21T15:55:22.797Z,70.20
2018-10-21T15:57:24.797Z,69.60
2018-10-21T15:59:26.810Z,69.80
2018-10-21T16:01:28.887Z,69.70
2018-10-21T16:03:30.905Z,69.60
2018-10-21T16:05:32.891Z,69.80
2018-10-21T16:07:34.951Z,69.70
2018-10-21T16:09:36.959Z,69.60
2018-10-21T16:11:38.954Z,69.50
2018-10-21T16:13:40.996Z,69.50
2018-10-21T16:15:43.053Z,69.50
2018-10-21T16:17:44.984Z,69.50
2018-10-21T16:19:47.103Z,69.60
2018-10-21T16:21:49.233Z,69.20
2018-10-21T16:23:51.251Z,69.00
2018-10-21T16:25:53.258Z,68.90
2018-10-21T16:27:55.321Z,68.90
2018-10-21T16:29:57.267Z,68.80
2018-10-21T16:31:59.345Z,68.70
2018-10-21T16:34:01.298Z,68.90
2018-10-21T16:36:03.305Z,68.90
2018-10-21T16:38:05.289Z,69.00
2018-10-21T16:40:07.269Z,69.80
2018-10-21T16:42:09.312Z,69.00
2018-10-21T16:44:11.322Z,68.70
2018-10-21T16:46:13.334Z,68.70
2018-10-21T16:48:15.426Z,67.90
2018-10-21T16:50:17.418Z,68.40
2018-10-21T16:52:19.922Z,68.60
2018-10-21T16:54:22.044Z,68.70
2018-10-21T16:56:23.930Z,68.60
2018-10-21T16:58:25.936Z,68.70
2018-10-21T17:00:28.051Z,68.70
2018-10-21T17:02:29.941Z,68.70
2018-10-21T17:04:31.968Z,68.60
2018-10-21T17:06:33.949Z,68.60
2018-10-21T17:08:35.978Z,68.60
2018-10-21T17:10:38.166Z,68.50
2018-10-21T17:12:39.947Z,68.60
2018-10-21T17:14:42.016Z,68.50
2018-10-21T17:16:43.946Z,68.40
2018-10-21T17:18:45.976Z,68.40
2018-10-21T17:20:47.965Z,68.10
2018-10-21T17:22:49.976Z,67.90
2018-10-21T17:24:52.003Z,68.40
2018-10-21T17:26:53.987Z,67.60
2018-10-21T17:28:56.016Z,67.20
2018-10-21T17:30:58.006Z,67.20
2018-10-21T17:33:00.057Z,67.10
2018-10-21T17:35:02.080Z,67.10
2018-10-21T17:37:04.116Z,67.10
2018-10-21T17:39:06.161Z,66.90
2018-10-21T17:41:08.152Z,66.90
2018-10-21T17:43:10.279Z,66.90
2018-10-21T17:45:12.194Z,66.80
2018-10-21T17:47:14.204Z,66.80
2018-10-21T17:49:16.219Z,66.80
2018-10-21T17:51:18.214Z,66.40
2018-10-21T17:53:20.492Z,66.80
2018-10-21T17:55:22.538Z,66.80
2018-10-21T17:57:24.561Z,66.50
2018-10-21T17:59:26.601Z,66.90
2018-10-21T18:01:28.628Z,66.80
2018-10-21T18:03:30.604Z,66.80
2018-10-21T18:05:32.591Z,66.80
2018-10-21T18:07:34.640Z,66.80
2018-10-21T18:09:36.657Z,66.70
2018-10-21T18:11:38.635Z,66.50
2018-10-21T18:13:40.646Z,66.50
2018-10-21T18:15:42.689Z,66.60
2018-10-21T18:17:44.625Z,66.60
2018-10-21T18:19:46.661Z,66.90
2018-10-21T18:21:48.684Z,66.70
2018-10-21T18:23:50.680Z,66.80
2018-10-21T18:25:52.762Z,66.80
2018-10-21T18:27:54.780Z,66.80
2018-10-21T18:29:56.727Z,66.80
2018-10-21T18:31:58.730Z,66.80
2018-10-21T18:34:00.765Z,66.80
2018-10-21T18:36:02.774Z,66.90
2018-10-21T18:38:04.763Z,66.90
2018-10-21T18:40:06.828Z,66.90
2018-10-21T18:42:08.811Z,66.90
2018-10-21T18:44:11.184Z,66.80
2018-10-21T18:46:13.289Z,67.00
2018-10-21T18:48:15.341Z,67.20
2018-10-21T18:50:17.311Z,66.80
2018-10-21T18:52:19.355Z,67.00
2018-10-21T18:54:21.312Z,67.00
2018-10-21T18:56:23.341Z,66.90
2018-10-21T18:58:25.746Z,67.10
2018-10-21T19:00:27.997Z,67.10
2018-10-21T19:02:29.991Z,67.20
2018-10-21T19:04:32.025Z,67.10
2018-10-21T19:06:34.032Z,67.10
2018-10-21T19:08:36.069Z,67.00
2018-10-21T19:10:38.097Z,67.10
2018-10-21T19:12:40.082Z,67.10
2018-10-21T19:14:42.129Z,66.90
2018-10-21T19:16:44.111Z,67.10
2018-10-21T19:18:46.102Z,67.10
2018-10-21T19:20:48.129Z,67.20
2018-10-21T19:22:50.159Z,67.20
2018-10-21T19:24:52.151Z,67.20
2018-10-21T19:26:54.242Z,66.90
2018-10-21T19:28:56.204Z,67.10
2018-10-21T19:30:58.263Z,67.20
2018-10-21T19:33:00.283Z,67.90
2018-10-21T19:35:02.296Z,67.10
2018-10-21T19:37:04.351Z,67.20
2018-10-21T19:39:06.323Z,67.10
2018-10-21T19:41:08.317Z,67.40
2018-10-21T19:43:10.383Z,67.40
2018-10-21T19:45:12.376Z,67.60
2018-10-21T19:47:14.343Z,68.10
2018-10-21T19:49:16.475Z,67.20
2018-10-21T19:51:18.381Z,67.40
2018-10-21T19:53:20.392Z,67.40
2018-10-21T19:55:22.441Z,67.40
2018-10-21T19:57:24.465Z,67.30
2018-10-21T19:59:26.442Z,67.50
2018-10-21T20:01:28.470Z,67.50
2018-10-21T20:03:30.541Z,68.10
2018-10-21T20:05:32.646Z,67.80
2018-10-21T20:07:34.659Z,68.10
2018-10-21T20:09:36.709Z,68.40
2018-10-21T20:11:38.720Z,68.60
2018-10-21T20:13:40.756Z,68.60
2018-10-21T20:15:42.756Z,68.20
2018-10-21T20:17:44.784Z,68.40
2018-10-21T20:19:46.820Z,68.60
2018-10-21T20:21:48.906Z,69.30
2018-10-21T20:23:50.879Z,68.40
2018-10-21T20:25:52.893Z,68.50
2018-10-21T20:27:54.921Z,68.60
2018-10-21T20:29:56.962Z,68.60
2018-10-21T20:31:58.995Z,68.60
2018-10-21T20:34:00.975Z,68.40
2018-10-21T20:36:02.981Z,68.60
2018-10-21T20:38:05.034Z,68.70
2018-10-21T20:40:07.453Z,68.60
2018-10-21T20:42:09.478Z,69.10
2018-10-21T20:44:11.459Z,68.40
2018-10-21T20:46:13.983Z,68.40
2018-10-21T20:48:15.965Z,68.40
2018-10-21T20:50:17.870Z,68.60
2018-10-21T20:52:19.903Z,69.20
2018-10-21T20:54:21.896Z,68.50
2018-10-21T20:56:23.886Z,69.40
2018-10-21T20:58:25.967Z,68.40
2018-10-21T21:00:27.957Z,68.30
2018-10-21T21:02:29.952Z,68.40
2018-10-21T21:04:31.974Z,68.40
2018-10-21T21:06:34.002Z,68.20
2018-10-21T21:08:36.053Z,68.40
2018-10-21T21:10:38.037Z,68.40
2018-10-21T21:12:40.022Z,68.20
2018-10-21T21:14:42.029Z,68.40
2018-10-21T21:16:44.016Z,68.30
2018-10-21T21:18:46.046Z,68.10
2018-10-21T21:20:48.060Z,68.40
2018-10-21T21:22:50.059Z,68.40
2018-10-21T21:24:52.033Z,68.50
2018-10-21T21:26:54.041Z,68.40
2018-10-21T21:28:56.024Z,68.40
2018-10-21T21:30:58.070Z,68.40
2018-10-21T21:33:00.089Z,68.40
2018-10-21T21:35:02.074Z,68.40
2018-10-21T21:37:04.078Z,68.30
2018-10-21T21:39:06.108Z,68.30
2018-10-21T21:41:08.116Z,68.40
2018-10-21T21:43:10.142Z,68.20
2018-10-21T21:45:12.132Z,68.30
2018-10-21T21:47:14.153Z,69.20
2018-10-21T21:49:16.187Z,68.40
2018-10-21T21:51:18.173Z,68.30
2018-10-21T21:53:20.187Z,68.20
2018-10-21T21:55:22.279Z,68.20
2018-10-21T21:57:24.258Z,68.20
2018-10-21T21:59:26.311Z,68.50
2018-10-21T22:01:28.292Z,68.40
2018-10-21T22:03:30.326Z,68.50
2018-10-21T22:05:32.506Z,68.60
2018-10-21T22:07:34.529Z,68.20
2018-10-21T22:09:36.561Z,68.20
2018-10-21T22:11:38.518Z,67.20
2018-10-21T22:13:40.582Z,68.20
2018-10-21T22:15:42.567Z,68.40
2018-10-21T22:17:44.556Z,68.30
2018-10-21T22:19:46.578Z,68.20
2018-10-21T22:21:48.578Z,68.20
2018-10-21T22:23:50.596Z,68.20
2018-10-21T22:25:52.593Z,68.10
2018-10-21T22:27:54.619Z,68.60
2018-10-21T22:29:56.668Z,68.20
2018-10-21T22:31:58.665Z,68.20
2018-10-21T22:34:00.660Z,68.20
2018-10-21T22:36:02.676Z,68.20
2018-10-21T22:38:05.109Z,68.10
2018-10-21T22:40:07.158Z,68.10
2018-10-21T22:42:09.137Z,68.10
2018-10-21T22:44:11.359Z,68.00
2018-10-21T22:46:13.398Z,68.10
2018-10-21T22:48:15.483Z,68.10
2018-10-21T22:50:17.376Z,68.00
2018-10-21T22:52:19.471Z,68.70
2018-10-21T22:54:21.365Z,67.80
2018-10-21T22:56:23.345Z,67.60
2018-10-21T22:58:25.374Z,67.80
2018-10-21T23:00:27.401Z,67.70
2018-10-21T23:02:29.428Z,67.80
2018-10-21T23:04:31.410Z,67.70
2018-10-21T23:06:33.699Z,67.70
2018-10-21T23:08:35.702Z,67.80
2018-10-21T23:10:37.684Z,67.70
2018-10-21T23:12:39.682Z,67.70
2018-10-21T23:14:41.708Z,67.70
2018-10-21T23:16:43.690Z,67.10
2018-10-21T23:18:45.740Z,67.70
2018-10-21T23:20:47.794Z,67.70
2018-10-21T23:22:49.821Z,67.70
2018-10-21T23:24:51.825Z,67.80
2018-10-21T23:26:53.831Z,67.80
2018-10-21T23:28:55.822Z,67.70
2018-10-21T23:30:57.839Z,67.70
2018-10-21T23:32:59.853Z,67.70
2018-10-21T23:35:01.832Z,67.60
2018-10-21T23:37:03.842Z,67.70
2018-10-21T23:39:05.831Z,67.60
2018-10-21T23:41:07.845Z,67.60
2018-10-21T23:43:09.837Z,67.70
2018-10-21T23:45:11.867Z,67.70
2018-10-21T23:47:13.894Z,67.70
2018-10-21T23:49:15.869Z,67.60
2018-10-21T23:51:17.899Z,67.60
2018-10-21T23:53:19.924Z,67.60
2018-10-21T23:55:21.916Z,67.60
2018-10-21T23:57:23.937Z,67.60
2018-10-21T23:59:25.960Z,67.60
